Time;durP1;ratioP1;P1;durP2;ratioP2;P2;SDS_P1;SDS_P2;PMS_P1;PMS_P2;Temp;Humidity;BMP_temperature;BMP_pressure;BME280_temperature;BME280_humidity;BME280_pressure;Samples;Min_cycle;Max_cycle;Signal;HPM_P1;HPM_P2
2024/01/21 00:00:25;;;;;;;;;;;0.30;99.90;;;;;;5050256;28;19971;-58
2024/01/21 00:02:51;;;;;;;;;;;0.30;99.90;;;;;;5048354;28;19931;-58
2024/01/21 00:05:17;;;;;;;;;;;0.30;99.90;;;;;;5029967;28;20847;-59
2024/01/21 00:07:42;;;;;;;;;;;0.30;99.90;;;;;;5047565;28;20375;-58
2024/01/21 00:10:09;;;;;;;;;;;0.30;99.90;;;;;;5051075;28;19924;-59
2024/01/21 00:12:35;;;;;;;;;;;0.30;99.90;;;;;;5033686;28;20008;-58
2024/01/21 00:15:01;;;;;;;;;;;0.30;99.90;;;;;;5035523;28;20066;-58
2024/01/21 00:17:27;;;;;;;;;;;0.30;99.90;;;;;;5032634;28;20020;-59
2024/01/21 00:19:52;;;;;;;;;;;0.30;99.90;;;;;;5031626;28;19924;-58
2024/01/21 00:22:18;;;;;;;;;;;0.30;99.90;;;;;;5049450;28;20295;-59
2024/01/21 00:24:43;;;;;;;;;;;0.30;99.90;;;;;;5057695;28;20358;-58
2024/01/21 00:27:09;;;;;;;;;;;0.30;99.90;;;;;;5055565;28;20196;-59
2024/01/21 00:29:34;;;;;;;;;;;0.20;99.90;;;;;;5053464;28;20049;-57
2024/01/21 00:32:00;;;;;;;;;;;0.30;99.90;;;;;;5056011;28;19932;-59
2024/01/21 00:34:26;;;;;;;;;;;0.30;99.90;;;;;;5032749;28;19928;-59
2024/01/21 00:36:51;;;;;;;;;;;0.30;99.90;;;;;;5037840;28;19975;-59
2024/01/21 00:39:17;;;;;;;;;;;0.20;99.90;;;;;;5053704;28;19928;-58
2024/01/21 00:41:42;;;;;;;;;;;0.30;99.90;;;;;;5054418;28;19955;-59
2024/01/21 00:44:08;;;;;;;;;;;0.20;99.90;;;;;;5035855;28;19924;-59
2024/01/21 00:46:38;;;;;;;;;;;0.20;99.90;;;;;;5052680;28;20060;-58
2024/01/21 00:49:04;;;;;;;;;;;0.20;99.90;;;;;;5049017;28;20421;-58
2024/01/21 00:51:29;;;;;;;;;;;0.20;99.90;;;;;;5035297;28;19929;-58
2024/01/21 00:53:55;;;;;;;;;;;0.20;99.90;;;;;;5050509;28;19928;-59
2024/01/21 00:56:21;;;;;;;;;;;0.20;99.90;;;;;;5051582;28;19929;-59
2024/01/21 00:58:46;;;;;;;;;;;0.20;99.90;;;;;;5052233;28;20422;-59
2024/01/21 01:01:12;;;;;;;;;;;0.30;99.90;;;;;;5034550;28;19925;-59
2024/01/21 01:03:38;;;;;;;;;;;0.20;99.90;;;;;;5047277;28;19929;-59
2024/01/21 01:06:04;;;;;;;;;;;0.30;99.90;;;;;;5055212;28;19928;-59
2024/01/21 01:08:29;;;;;;;;;;;0.30;99.90;;;;;;5037655;28;19928;-58
2024/01/21 01:10:55;;;;;;;;;;;0.30;99.90;;;;;;5053114;28;19928;-59
2024/01/21 01:13:21;;;;;;;;;;;0.30;99.90;;;;;;5045401;28;19963;-59
2024/01/21 01:15:46;;;;;;;;;;;0.30;99.90;;;;;;5049350;28;19972;-58
2024/01/21 01:18:13;;;;;;;;;;;0.30;99.90;;;;;;5050459;28;19928;-58
2024/01/21 01:20:39;;;;;;;;;;;0.30;99.90;;;;;;5049924;28;19929;-58
2024/01/21 01:23:05;;;;;;;;;;;0.30;99.90;;;;;;5046380;28;20280;-59
2024/01/21 01:25:31;;;;;;;;;;;0.30;99.90;;;;;;5045714;28;20305;-58
2024/01/21 01:27:57;;;;;;;;;;;0.30;99.90;;;;;;5046309;28;19927;-59
2024/01/21 01:30:22;;;;;;;;;;;0.30;99.90;;;;;;5054944;28;19924;-58
2024/01/21 01:32:48;;;;;;;;;;;0.30;99.90;;;;;;5037523;28;19935;-58
2024/01/21 01:35:14;;;;;;;;;;;0.40;99.90;;;;;;5046061;28;20291;-59
2024/01/21 01:37:39;;;;;;;;;;;0.40;99.90;;;;;;5051656;28;19935;-58
2024/01/21 01:40:06;;;;;;;;;;;0.40;99.90;;;;;;5051661;28;20391;-58
2024/01/21 01:42:32;;;;;;;;;;;0.40;99.90;;;;;;5052742;28;20374;-59
2024/01/21 01:44:58;;;;;;;;;;;0.40;99.90;;;;;;5036895;28;19929;-58
2024/01/21 01:47:23;;;;;;;;;;;0.40;99.90;;;;;;5034096;28;20522;-59
2024/01/21 01:49:49;;;;;;;;;;;0.40;99.90;;;;;;5049862;28;20311;-59
2024/01/21 01:52:15;;;;;;;;;;;0.50;99.90;;;;;;5032779;28;19967;-58
2024/01/21 01:54:42;;;;;;;;;;;0.50;99.90;;;;;;5052491;28;20043;-59
2024/01/21 01:57:07;;;;;;;;;;;0.50;99.90;;;;;;5031978;28;19936;-58
2024/01/21 01:59:33;;;;;;;;;;;0.50;99.90;;;;;;5049629;28;19929;-58
2024/01/21 02:01:59;;;;;;;;;;;0.50;99.90;;;;;;5031397;28;20298;-59
2024/01/21 02:04:24;;;;;;;;;;;0.50;99.90;;;;;;5049029;28;19981;-58
2024/01/21 02:06:52;;;;;;;;;;;0.50;99.90;;;;;;5044279;28;20045;-59
2024/01/21 02:09:18;;;;;;;;;;;0.60;99.90;;;;;;5046184;28;19925;-59
2024/01/21 02:11:43;;;;;;;;;;;0.50;99.90;;;;;;5044970;28;20436;-58
2024/01/21 02:14:09;;;;;;;;;;;0.50;99.90;;;;;;5062586;28;19928;-59
2024/01/21 02:16:35;;;;;;;;;;;0.50;99.90;;;;;;5051998;28;20383;-59
2024/01/21 02:19:03;;;;;;;;;;;0.50;99.90;;;;;;5049660;28;19936;-59
2024/01/21 02:21:29;;;;;;;;;;;0.50;99.90;;;;;;5048059;28;19981;-58
2024/01/21 02:23:55;;;;;;;;;;;0.50;99.90;;;;;;5032177;28;19924;-59
2024/01/21 02:26:20;;;;;;;;;;;0.40;99.90;;;;;;5032644;28;19924;-59
2024/01/21 02:28:46;;;;;;;;;;;0.50;99.90;;;;;;5044400;28;20564;-59
2024/01/21 02:31:11;;;;;;;;;;;0.50;99.90;;;;;;5033164;28;19953;-59
2024/01/21 02:33:37;;;;;;;;;;;0.50;99.90;;;;;;5047988;28;20382;-59
2024/01/21 02:36:03;;;;;;;;;;;0.50;99.90;;;;;;5046138;28;19928;-58
2024/01/21 02:38:28;;;;;;;;;;;0.40;99.90;;;;;;5044866;28;19928;-59
2024/01/21 02:40:54;;;;;;;;;;;0.40;99.90;;;;;;5046362;28;20488;-59
2024/01/21 02:43:19;;;;;;;;;;;0.50;99.90;;;;;;5045921;28;19974;-59
2024/01/21 02:45:45;;;;;;;;;;;0.50;99.90;;;;;;5045870;28;19924;-58
2024/01/21 02:48:11;;;;;;;;;;;0.50;99.90;;;;;;5045028;28;19925;-58
2024/01/21 02:50:36;;;;;;;;;;;0.50;99.90;;;;;;5039096;28;20399;-58
2024/01/21 02:53:02;;;;;;;;;;;0.50;99.90;;;;;;5051165;28;19924;-59
2024/01/21 02:55:27;;;;;;;;;;;0.50;99.90;;;;;;5051570;28;20019;-59
2024/01/21 02:57:53;;;;;;;;;;;0.50;99.90;;;;;;5051707;28;19924;-59
2024/01/21 03:00:19;;;;;;;;;;;0.60;99.90;;;;;;5050346;28;19929;-58
2024/01/21 03:02:44;;;;;;;;;;;0.60;99.90;;;;;;5049099;28;20179;-59
2024/01/21 03:05:10;;;;;;;;;;;0.60;99.90;;;;;;5050919;28;21876;-58
2024/01/21 03:07:35;;;;;;;;;;;0.60;99.90;;;;;;5051714;28;19925;-59
2024/01/21 03:10:01;;;;;;;;;;;0.60;99.90;;;;;;5048392;28;20307;-58
2024/01/21 03:12:27;;;;;;;;;;;0.60;99.90;;;;;;5030652;28;19970;-59
2024/01/21 03:14:52;;;;;;;;;;;0.70;99.90;;;;;;5047743;28;19924;-59
2024/01/21 03:17:18;;;;;;;;;;;0.70;99.90;;;;;;5046818;28;19997;-59
2024/01/21 03:19:44;;;;;;;;;;;0.70;99.90;;;;;;5048198;28;19978;-58
2024/01/21 03:22:09;;;;;;;;;;;0.70;99.90;;;;;;5046705;28;20013;-58
2024/01/21 03:24:36;;;;;;;;;;;0.70;99.90;;;;;;5043128;28;20028;-59
2024/01/21 03:27:01;;;;;;;;;;;0.70;99.90;;;;;;5044866;28;19921;-58
2024/01/21 03:29:27;;;;;;;;;;;0.60;99.90;;;;;;5031479;28;19925;-59
2024/01/21 03:31:53;;;;;;;;;;;0.70;99.90;;;;;;5047052;28;19924;-58
2024/01/21 03:34:18;;;;;;;;;;;0.60;99.90;;;;;;5032513;28;20208;-59
2024/01/21 03:36:44;;;;;;;;;;;0.60;99.90;;;;;;5047027;28;19932;-58
2024/01/21 03:39:09;;;;;;;;;;;0.60;99.90;;;;;;5045576;28;19932;-59
2024/01/21 03:41:35;;;;;;;;;;;0.60;99.90;;;;;;5046180;28;20025;-59
2024/01/21 03:44:00;;;;;;;;;;;0.60;99.90;;;;;;5048657;28;20011;-59
2024/01/21 03:46:26;;;;;;;;;;;0.60;99.90;;;;;;5045685;28;20619;-59
2024/01/21 03:48:51;;;;;;;;;;;0.60;99.90;;;;;;5045281;28;20015;-59
2024/01/21 03:51:17;;;;;;;;;;;0.60;99.90;;;;;;5040060;28;19920;-59
2024/01/21 03:53:43;;;;;;;;;;;0.60;99.90;;;;;;5043378;28;19955;-59
2024/01/21 03:56:08;;;;;;;;;;;0.60;99.90;;;;;;5027872;28;20307;-59
2024/01/21 03:58:34;;;;;;;;;;;0.60;99.90;;;;;;5045909;28;19979;-58
2024/01/21 04:01:01;;;;;;;;;;;0.50;99.90;;;;;;5049696;28;20009;-58
2024/01/21 04:03:27;;;;;;;;;;;0.50;99.90;;;;;;5032649;28;19928;-57
2024/01/21 04:05:52;;;;;;;;;;;0.50;99.90;;;;;;5033902;28;19935;-59
2024/01/21 04:08:18;;;;;;;;;;;0.40;99.90;;;;;;5052566;28;19924;-58
2024/01/21 04:10:44;;;;;;;;;;;0.40;99.90;;;;;;5051645;28;19987;-58
2024/01/21 04:13:09;;;;;;;;;;;0.40;99.90;;;;;;5043773;28;19968;-59
2024/01/21 04:15:35;;;;;;;;;;;0.40;99.90;;;;;;5049919;28;19935;-59
2024/01/21 04:18:00;;;;;;;;;;;0.40;99.90;;;;;;5042831;28;20231;-59
2024/01/21 04:20:26;;;;;;;;;;;0.40;99.90;;;;;;5065299;28;20406;-57
2024/01/21 04:22:52;;;;;;;;;;;0.40;99.90;;;;;;5047833;28;19925;-59
2024/01/21 04:25:18;;;;;;;;;;;0.50;99.90;;;;;;5029738;28;19924;-59
2024/01/21 04:27:43;;;;;;;;;;;0.40;99.90;;;;;;5041206;28;20284;-59
2024/01/21 04:30:09;;;;;;;;;;;0.50;99.90;;;;;;5046478;28;19983;-59
2024/01/21 04:32:35;;;;;;;;;;;0.40;99.90;;;;;;5041769;28;20407;-59
2024/01/21 04:35:00;;;;;;;;;;;0.50;99.90;;;;;;5029155;28;19924;-59
2024/01/21 04:37:26;;;;;;;;;;;0.50;99.90;;;;;;5039771;28;20474;-58
2024/01/21 04:39:51;;;;;;;;;;;0.50;99.90;;;;;;5023038;28;19932;-58
2024/01/21 04:42:17;;;;;;;;;;;0.50;99.90;;;;;;5027695;28;20315;-58
2024/01/21 04:44:42;;;;;;;;;;;0.60;99.90;;;;;;5011086;28;20422;-58
2024/01/21 04:47:08;;;;;;;;;;;0.50;99.90;;;;;;5029345;28;19924;-59
2024/01/21 04:49:34;;;;;;;;;;;0.50;99.90;;;;;;5029425;28;20371;-58
2024/01/21 04:51:59;;;;;;;;;;;0.60;99.90;;;;;;5006658;28;20020;-59
2024/01/21 04:54:25;;;;;;;;;;;0.60;99.70;;;;;;5008107;28;19995;-59
2024/01/21 04:56:51;;;;;;;;;;;0.60;99.80;;;;;;5008239;28;19935;-59
2024/01/21 04:59:16;;;;;;;;;;;0.60;99.90;;;;;;5030329;28;20396;-59
2024/01/21 05:01:42;;;;;;;;;;;0.60;99.30;;;;;;5031718;28;19925;-59
2024/01/21 05:04:08;;;;;;;;;;;0.70;99.30;;;;;;5009694;28;19921;-59
2024/01/21 05:06:34;;;;;;;;;;;0.70;98.60;;;;;;5026145;28;20358;-58
2024/01/21 05:08:59;;;;;;;;;;;0.80;98.60;;;;;;5023492;28;19925;-59
2024/01/21 05:11:25;;;;;;;;;;;0.70;98.60;;;;;;5027646;28;19935;-59
2024/01/21 05:13:51;;;;;;;;;;;0.80;98.30;;;;;;5014061;28;20367;-58
2024/01/21 05:16:16;;;;;;;;;;;0.80;98.20;;;;;;5033347;28;19929;-59
2024/01/21 05:18:43;;;;;;;;;;;0.80;98.10;;;;;;5030025;28;20590;-59
2024/01/21 05:21:08;;;;;;;;;;;0.90;97.90;;;;;;5030868;28;20005;-58
2024/01/21 05:23:34;;;;;;;;;;;0.80;97.90;;;;;;5010855;28;19928;-59
2024/01/21 05:25:59;;;;;;;;;;;0.90;97.80;;;;;;5032441;28;20379;-59
2024/01/21 05:28:25;;;;;;;;;;;0.90;97.20;;;;;;5028011;28;20060;-58
2024/01/21 05:30:51;;;;;;;;;;;0.90;97.10;;;;;;5030645;28;19987;-59
2024/01/21 05:33:16;;;;;;;;;;;0.90;97.10;;;;;;5010978;28;20577;-58
2024/01/21 05:35:42;;;;;;;;;;;0.90;97.00;;;;;;5028738;28;19934;-59
2024/01/21 05:38:08;;;;;;;;;;;1.00;96.90;;;;;;5007893;28;19936;-58
2024/01/21 05:40:35;;;;;;;;;;;1.00;96.80;;;;;;5009464;28;19932;-57
2024/01/21 05:43:01;;;;;;;;;;;1.00;96.30;;;;;;5029256;28;19935;-59
2024/01/21 05:45:26;;;;;;;;;;;1.00;96.20;;;;;;5026151;28;19922;-59
2024/01/21 05:47:52;;;;;;;;;;;1.10;95.30;;;;;;5032397;28;20415;-58
2024/01/21 05:50:18;;;;;;;;;;;1.10;94.90;;;;;;5035163;28;19991;-59
2024/01/21 05:52:43;;;;;;;;;;;1.10;95.10;;;;;;5032203;28;19929;-59
2024/01/21 05:55:09;;;;;;;;;;;1.10;94.70;;;;;;5034552;28;19929;-59
2024/01/21 05:57:34;;;;;;;;;;;1.20;94.30;;;;;;5019915;28;20844;-59
2024/01/21 06:00:00;;;;;;;;;;;1.20;94.30;;;;;;5016774;28;20403;-59
2024/01/21 06:02:26;;;;;;;;;;;1.20;94.30;;;;;;5033720;28;20673;-59
2024/01/21 06:04:51;;;;;;;;;;;1.70;94.00;;;;;;5030974;28;19925;-58
2024/01/21 06:07:17;;;;;;;;;;;1.20;94.00;;;;;;5010319;28;19934;-59
2024/01/21 06:09:43;;;;;;;;;;;1.20;94.30;;;;;;5014092;28;20280;-59
2024/01/21 06:12:08;;;;;;;;;;;1.30;93.80;;;;;;5030672;28;19925;-59
2024/01/21 06:14:34;;;;;;;;;;;1.20;94.00;;;;;;5028505;28;19929;-59
2024/01/21 06:17:00;;;;;;;;;;;1.30;93.60;;;;;;5031337;28;19929;-58
2024/01/21 06:19:25;;;;;;;;;;;1.30;93.80;;;;;;5032130;28;20119;-59
2024/01/21 06:21:51;;;;;;;;;;;1.30;94.10;;;;;;5034088;28;19925;-58
2024/01/21 06:24:19;;;;;;;;;;;1.30;94.30;;;;;;5019190;28;19929;-59
2024/01/21 06:26:45;;;;;;;;;;;1.20;94.60;;;;;;5032722;28;20020;-57
2024/01/21 06:29:10;;;;;;;;;;;1.20;94.70;;;;;;5036010;28;19932;-59
2024/01/21 06:31:36;;;;;;;;;;;1.20;94.80;;;;;;5034105;28;19933;-59
2024/01/21 06:34:02;;;;;;;;;;;1.20;94.70;;;;;;5032121;28;20508;-59
2024/01/21 06:36:28;;;;;;;;;;;1.20;94.60;;;;;;5032118;28;19929;-58
2024/01/21 06:38:53;;;;;;;;;;;1.20;94.40;;;;;;5040607;28;19929;-60
2024/01/21 06:41:19;;;;;;;;;;;1.20;94.30;;;;;;5045851;28;20671;-58
2024/01/21 06:43:45;;;;;;;;;;;1.20;94.70;;;;;;5051159;28;19925;-59
2024/01/21 06:46:11;;;;;;;;;;;1.20;94.40;;;;;;5050388;28;20545;-59
2024/01/21 06:48:37;;;;;;;;;;;1.20;94.60;;;;;;5031197;28;19925;-59
2024/01/21 06:51:10;;;;;;;;;;;1.20;94.30;;;;;;5044805;28;20323;-58
2024/01/21 06:53:36;;;;;;;;;;;1.20;94.10;;;;;;5048093;28;20279;-59
2024/01/21 06:56:07;;;;;;;;;;;1.20;94.40;;;;;;5035057;28;19982;-59
2024/01/21 06:58:35;;;;;;;;;;;1.20;94.50;;;;;;5034411;28;19924;-59
2024/01/21 07:01:01;;;;;;;;;;;1.20;94.50;;;;;;5052634;28;19920;-58
2024/01/21 07:03:27;;;;;;;;;;;1.20;94.80;;;;;;5053006;28;20560;-59
2024/01/21 07:05:53;;;;;;;;;;;1.20;94.70;;;;;;5048893;28;20186;-59
2024/01/21 07:08:19;;;;;;;;;;;1.20;94.60;;;;;;5050817;28;20470;-59
2024/01/21 07:10:44;;;;;;;;;;;1.20;94.80;;;;;;5050140;28;19978;-58
2024/01/21 07:13:10;;;;;;;;;;;1.20;94.80;;;;;;5048006;28;20414;-59
2024/01/21 07:15:36;;;;;;;;;;;1.20;95.10;;;;;;5028085;28;19924;-59
2024/01/21 07:18:02;;;;;;;;;;;1.20;95.20;;;;;;5027391;28;19946;-59
2024/01/21 07:20:28;;;;;;;;;;;1.20;95.30;;;;;;5047787;28;19925;-59
2024/01/21 07:22:55;;;;;;;;;;;1.20;95.50;;;;;;5047193;28;19971;-59
2024/01/21 07:25:21;;;;;;;;;;;1.20;95.50;;;;;;5053521;28;20010;-59
2024/01/21 07:27:47;;;;;;;;;;;1.20;95.60;;;;;;5032780;28;20015;-59
2024/01/21 07:30:12;;;;;;;;;;;1.20;95.70;;;;;;5034513;28;20015;-59
2024/01/21 07:32:39;;;;;;;;;;;1.20;95.60;;;;;;5035219;28;19974;-59
2024/01/21 07:35:05;;;;;;;;;;;1.30;95.50;;;;;;5054706;28;19971;-58
2024/01/21 07:37:30;;;;;;;;;;;1.20;95.60;;;;;;5051444;28;20071;-59
2024/01/21 07:39:56;;;;;;;;;;;1.20;95.80;;;;;;5051605;28;19936;-59
2024/01/21 07:42:21;;;;;;;;;;;1.20;96.00;;;;;;5052422;28;20030;-59
2024/01/21 07:44:47;;;;;;;;;;;1.20;96.20;;;;;;5053082;28;19982;-59
2024/01/21 07:47:13;;;;;;;;;;;1.20;96.10;;;;;;5050447;28;19924;-58
2024/01/21 07:49:38;;;;;;;;;;;1.20;96.20;;;;;;5049174;28;20011;-58
2024/01/21 07:52:04;;;;;;;;;;;1.30;96.10;;;;;;5044230;28;19928;-59
2024/01/21 07:54:30;;;;;;;;;;;1.30;96.40;;;;;;5051886;28;19924;-59
2024/01/21 07:56:55;;;;;;;;;;;1.30;96.40;;;;;;5049366;28;19976;-59
2024/01/21 07:59:21;;;;;;;;;;;1.20;96.70;;;;;;5030338;28;19924;-59
2024/01/21 08:01:46;;;;;;;;;;;1.20;96.90;;;;;;5047736;28;19925;-58
2024/01/21 08:04:12;;;;;;;;;;;1.20;97.30;;;;;;5029652;28;19921;-59
2024/01/21 08:06:37;;;;;;;;;;;1.20;97.60;;;;;;5046196;28;20374;-58
2024/01/21 08:09:03;;;;;;;;;;;1.20;97.70;;;;;;5028434;28;19950;-59
2024/01/21 08:11:29;;;;;;;;;;;1.20;97.70;;;;;;5049468;28;19935;-59
2024/01/21 08:13:54;;;;;;;;;;;1.30;97.70;;;;;;5048410;28;19960;-59
2024/01/21 08:16:20;;;;;;;;;;;1.30;97.80;;;;;;5048456;28;20283;-58
2024/01/21 08:18:46;;;;;;;;;;;1.30;97.70;;;;;;5030799;28;19928;-59
2024/01/21 08:21:11;;;;;;;;;;;1.30;97.80;;;;;;5047262;28;19924;-59
2024/01/21 08:23:40;;;;;;;;;;;1.30;97.90;;;;;;5047400;28;19921;-59
2024/01/21 08:26:05;;;;;;;;;;;1.30;97.70;;;;;;5028778;28;19925;-59
2024/01/21 08:28:31;;;;;;;;;;;1.40;97.60;;;;;;5024545;28;19928;-59
2024/01/21 08:30:56;;;;;;;;;;;1.40;97.70;;;;;;5028708;28;19924;-59
2024/01/21 08:33:22;;;;;;;;;;;1.40;97.90;;;;;;5044599;28;19929;-59
2024/01/21 08:35:48;;;;;;;;;;;1.40;97.90;;;;;;5047106;28;19982;-59
2024/01/21 08:38:13;;;;;;;;;;;1.40;98.00;;;;;;5044793;28;19939;-59
2024/01/21 08:40:39;;;;;;;;;;;1.40;98.10;;;;;;5034266;28;20094;-58
2024/01/21 08:43:04;;;;;;;;;;;1.40;98.30;;;;;;5048102;28;19940;-58
2024/01/21 08:45:30;;;;;;;;;;;1.50;98.50;;;;;;5041039;28;20443;-59
2024/01/21 08:47:56;;;;;;;;;;;1.50;98.60;;;;;;5039873;28;20414;-59
2024/01/21 08:50:21;;;;;;;;;;;1.50;98.60;;;;;;5021112;28;19928;-59
2024/01/21 08:52:47;;;;;;;;;;;1.50;98.70;;;;;;5017255;28;19929;-60
2024/01/21 08:55:13;;;;;;;;;;;1.50;98.60;;;;;;5043597;28;19931;-59
2024/01/21 08:57:38;;;;;;;;;;;1.60;98.60;;;;;;5041721;28;20013;-59
2024/01/21 09:00:05;;;;;;;;;;;1.60;98.60;;;;;;5054938;28;19932;-59
2024/01/21 09:02:30;;;;;;;;;;;1.60;98.80;;;;;;5033347;28;19920;-58
2024/01/21 09:04:56;;;;;;;;;;;1.70;99.00;;;;;;5052990;28;19924;-59
2024/01/21 09:07:22;;;;;;;;;;;1.70;99.20;;;;;;5030232;28;19967;-59
2024/01/21 09:09:47;;;;;;;;;;;1.70;99.50;;;;;;5050164;28;20371;-59
2024/01/21 09:12:15;;;;;;;;;;;1.70;99.80;;;;;;5052970;28;19924;-59
2024/01/21 09:14:41;;;;;;;;;;;1.70;99.90;;;;;;5052763;28;20008;-58
2024/01/21 09:17:07;;;;;;;;;;;1.80;99.90;;;;;;5051027;28;20363;-58
2024/01/21 09:19:32;;;;;;;;;;;1.80;99.90;;;;;;5047195;28;19924;-60
2024/01/21 09:21:58;;;;;;;;;;;1.80;99.90;;;;;;5051449;28;19921;-59
2024/01/21 09:24:23;;;;;;;;;;;2.00;99.90;;;;;;5054838;28;20017;-59
2024/01/21 09:26:49;;;;;;;;;;;1.90;99.90;;;;;;5050950;28;20006;-57
2024/01/21 09:29:15;;;;;;;;;;;1.90;99.90;;;;;;5032330;28;19924;-59
2024/01/21 09:31:41;;;;;;;;;;;2.00;99.90;;;;;;5033213;28;19924;-59
2024/01/21 09:34:06;;;;;;;;;;;2.00;99.90;;;;;;5029392;28;20154;-59
2024/01/21 09:36:34;;;;;;;;;;;2.00;99.90;;;;;;5050341;28;20008;-59
2024/01/21 09:39:01;;;;;;;;;;;2.00;99.90;;;;;;5031980;28;20023;-59
2024/01/21 09:41:35;;;;;;;;;;;2.10;99.90;;;;;;5048698;28;20063;-58
2024/01/21 09:44:01;;;;;;;;;;;2.10;99.90;;;;;;5048965;28;19931;-58
2024/01/21 09:46:27;;;;;;;;;;;2.10;99.90;;;;;;5046781;28;19929;-60
2024/01/21 09:48:53;;;;;;;;;;;2.20;99.90;;;;;;5030019;28;20326;-58
2024/01/21 09:51:20;;;;;;;;;;;2.20;99.90;;;;;;5053401;28;20272;-59
2024/01/21 09:53:46;;;;;;;;;;;2.20;99.90;;;;;;5055216;28;19967;-58
2024/01/21 09:56:12;;;;;;;;;;;2.30;99.90;;;;;;5034520;28;19932;-59
2024/01/21 09:58:44;;;;;;;;;;;2.30;99.90;;;;;;5049989;28;19939;-60
2024/01/21 10:01:10;;;;;;;;;;;2.30;99.90;;;;;;5036267;28;20368;-60
2024/01/21 10:03:36;;;;;;;;;;;2.30;99.90;;;;;;5033974;28;19925;-59
2024/01/21 10:06:01;;;;;;;;;;;2.40;99.90;;;;;;5055644;28;20319;-57
2024/01/21 10:08:28;;;;;;;;;;;2.40;99.90;;;;;;5035098;28;19964;-59
2024/01/21 10:10:54;;;;;;;;;;;2.40;99.90;;;;;;5032670;28;19924;-60
2024/01/21 10:13:19;;;;;;;;;;;2.40;99.90;;;;;;5051912;28;19929;-59
2024/01/21 10:15:45;;;;;;;;;;;2.50;99.90;;;;;;5051906;28;19978;-59
2024/01/21 10:18:11;;;;;;;;;;;2.50;99.90;;;;;;5050403;28;20063;-59
2024/01/21 10:20:37;;;;;;;;;;;2.50;99.90;;;;;;5032211;28;20493;-59
2024/01/21 10:23:11;;;;;;;;;;;2.60;99.90;;;;;;5042561;28;20330;-59
2024/01/21 10:25:40;;;;;;;;;;;2.60;99.90;;;;;;5044186;28;19932;-58
2024/01/21 10:28:06;;;;;;;;;;;2.60;99.90;;;;;;5028463;28;19927;-59
2024/01/21 10:30:31;;;;;;;;;;;2.70;99.90;;;;;;5045739;28;19928;-59
2024/01/21 10:32:57;;;;;;;;;;;2.70;99.90;;;;;;5052869;28;19928;-58
2024/01/21 10:35:22;;;;;;;;;;;2.80;99.90;;;;;;5054343;28;19928;-59
2024/01/21 10:37:48;;;;;;;;;;;2.80;99.90;;;;;;5051222;28;19928;-59
2024/01/21 10:40:14;;;;;;;;;;;2.80;99.90;;;;;;5048794;28;19981;-59
2024/01/21 10:42:40;;;;;;;;;;;2.80;99.90;;;;;;5053126;28;19971;-59
2024/01/21 10:45:06;;;;;;;;;;;2.90;99.90;;;;;;5055923;28;19985;-58
2024/01/21 10:47:34;;;;;;;;;;;2.90;99.90;;;;;;5032031;28;19921;-59
2024/01/21 10:50:01;;;;;;;;;;;2.90;99.90;;;;;;5052989;28;19931;-59
2024/01/21 10:52:27;;;;;;;;;;;2.90;99.90;;;;;;5049204;28;19928;-58
2024/01/21 10:54:53;;;;;;;;;;;2.90;99.90;;;;;;5050054;28;19924;-58
2024/01/21 10:57:18;;;;;;;;;;;2.90;99.90;;;;;;5053318;28;20359;-59
2024/01/21 10:59:47;;;;;;;;;;;2.90;99.90;;;;;;5053165;28;20604;-59
2024/01/21 11:02:12;;;;;;;;;;;3.00;99.90;;;;;;5049154;28;19924;-59
2024/01/21 11:04:38;;;;;;;;;;;3.00;99.90;;;;;;5031218;28;19920;-59
2024/01/21 11:07:05;;;;;;;;;;;3.00;99.90;;;;;;5047231;28;19924;-58
2024/01/21 11:09:33;;;;;;;;;;;3.10;99.90;;;;;;5046173;28;19932;-58
2024/01/21 11:12:01;;;;;;;;;;;3.10;99.90;;;;;;5046208;28;20023;-59
2024/01/21 11:14:38;;;;;;;;;;;3.10;99.90;;;;;;5047859;28;20421;-59
2024/01/21 11:17:05;;;;;;;;;;;3.10;99.90;;;;;;5044023;28;19924;-59
2024/01/21 11:19:37;;;;;;;;;;;3.20;99.90;;;;;;5045928;28;19947;-59
2024/01/21 11:22:02;;;;;;;;;;;3.20;99.90;;;;;;5034394;28;19924;-59
2024/01/21 11:24:31;;;;;;;;;;;3.20;99.90;;;;;;5034828;28;20296;-59
2024/01/21 11:26:58;;;;;;;;;;;3.30;99.90;;;;;;5031322;28;19967;-57
2024/01/21 11:29:31;;;;;;;;;;;3.30;99.90;;;;;;5023692;28;19928;-58
2024/01/21 11:32:04;;;;;;;;;;;3.30;99.90;;;;;;5042339;28;20524;-58
2024/01/21 11:34:31;;;;;;;;;;;3.40;99.90;;;;;;5025580;28;19929;-60
2024/01/21 11:36:57;;;;;;;;;;;3.40;99.90;;;;;;5043324;28;19927;-59
2024/01/21 11:39:24;;;;;;;;;;;3.40;99.90;;;;;;5042019;28;20015;-60
2024/01/21 11:41:50;;;;;;;;;;;3.50;99.90;;;;;;5021841;28;19935;-59
2024/01/21 11:44:19;;;;;;;;;;;3.50;99.90;;;;;;5037274;28;20523;-59
2024/01/21 11:46:45;;;;;;;;;;;3.50;99.90;;;;;;5037990;28;19951;-60
2024/01/21 11:49:11;;;;;;;;;;;3.50;99.90;;;;;;5036890;28;19925;-59
2024/01/21 11:51:37;;;;;;;;;;;3.50;99.90;;;;;;5015091;28;19978;-60
2024/01/21 11:54:03;;;;;;;;;;;3.50;99.90;;;;;;5028963;28;19928;-59
2024/01/21 11:56:29;;;;;;;;;;;3.50;99.90;;;;;;5035110;28;19936;-59
2024/01/21 11:58:55;;;;;;;;;;;3.50;99.90;;;;;;5018356;28;20643;-59
2024/01/21 12:01:21;;;;;;;;;;;3.50;99.90;;;;;;5035648;28;20020;-59
2024/01/21 12:03:47;;;;;;;;;;;3.40;99.90;;;;;;5017686;28;21874;-59
2024/01/21 12:06:14;;;;;;;;;;;3.50;99.90;;;;;;5040124;28;20179;-58
2024/01/21 12:08:43;;;;;;;;;;;3.40;99.90;;;;;;5036631;28;19928;-59
2024/01/21 12:11:08;;;;;;;;;;;3.40;99.90;;;;;;5027581;28;19925;-59
2024/01/21 12:13:34;;;;;;;;;;;3.50;99.90;;;;;;5039072;28;19925;-59
2024/01/21 12:15:59;;;;;;;;;;;3.50;99.90;;;;;;5038843;28;19933;-59
2024/01/21 12:18:25;;;;;;;;;;;3.50;99.90;;;;;;5045525;28;19925;-58
2024/01/21 12:20:51;;;;;;;;;;;3.50;99.90;;;;;;5043263;28;20391;-59
2024/01/21 12:23:22;;;;;;;;;;;3.50;99.90;;;;;;5040438;28;20371;-59
2024/01/21 12:25:48;;;;;;;;;;;3.50;99.90;;;;;;5037209;28;19925;-58
2024/01/21 12:28:14;;;;;;;;;;;3.50;99.90;;;;;;5038559;28;19955;-59
2024/01/21 12:30:40;;;;;;;;;;;3.50;99.90;;;;;;5047218;28;19924;-59
2024/01/21 12:33:05;;;;;;;;;;;3.50;99.90;;;;;;5028112;28;19936;-58
2024/01/21 12:35:32;;;;;;;;;;;3.60;99.90;;;;;;5047583;28;20059;-59
2024/01/21 12:37:59;;;;;;;;;;;3.60;99.90;;;;;;5036138;28;19935;-60
2024/01/21 12:40:25;;;;;;;;;;;3.60;99.90;;;;;;5020508;28;19932;-59
2024/01/21 12:42:51;;;;;;;;;;;3.60;99.90;;;;;;5025416;28;19932;-58
2024/01/21 12:45:17;;;;;;;;;;;3.60;99.90;;;;;;5044349;28;20069;-59
2024/01/21 12:47:43;;;;;;;;;;;3.60;99.90;;;;;;5033916;28;19925;-59
2024/01/21 12:50:09;;;;;;;;;;;3.60;99.90;;;;;;5040965;28;19928;-58
2024/01/21 12:52:38;;;;;;;;;;;3.60;99.90;;;;;;5046382;28;19935;-59
2024/01/21 12:55:04;;;;;;;;;;;3.60;99.90;;;;;;5028702;28;19935;-59
2024/01/21 12:57:30;;;;;;;;;;;3.70;99.90;;;;;;5045918;28;19932;-59
2024/01/21 13:00:00;;;;;;;;;;;3.70;99.90;;;;;;5037087;28;19979;-59
2024/01/21 13:02:25;;;;;;;;;;;3.70;99.90;;;;;;5041109;28;19929;-60
2024/01/21 13:04:51;;;;;;;;;;;3.60;99.90;;;;;;5040592;28;19978;-59
2024/01/21 13:07:17;;;;;;;;;;;3.70;99.90;;;;;;5034261;28;19924;-59
2024/01/21 13:09:43;;;;;;;;;;;3.60;99.90;;;;;;5039779;28;19932;-59
2024/01/21 13:12:09;;;;;;;;;;;3.70;99.90;;;;;;5037505;28;19928;-60
2024/01/21 13:14:34;;;;;;;;;;;3.70;99.90;;;;;;5041610;28;19931;-58
2024/01/21 13:17:01;;;;;;;;;;;3.70;99.90;;;;;;5040458;28;19925;-59
2024/01/21 13:19:26;;;;;;;;;;;3.70;99.90;;;;;;5043487;28;20518;-59
2024/01/21 13:21:52;;;;;;;;;;;3.80;99.90;;;;;;5023517;28;19971;-60
2024/01/21 13:24:18;;;;;;;;;;;3.80;99.90;;;;;;5044645;28;20354;-59
2024/01/21 13:26:51;;;;;;;;;;;3.80;99.90;;;;;;5027974;28;19924;-59
2024/01/21 13:32:05;;;;;;;;;;;3.90;99.90;;;;;;5022856;28;19967;-69
2024/01/21 13:34:30;;;;;;;;;;;3.90;99.90;;;;;;5014682;28;20027;-65
2024/01/21 13:36:56;;;;;;;;;;;3.90;99.90;;;;;;5035803;28;19929;-64
2024/01/21 13:39:24;;;;;;;;;;;3.80;99.90;;;;;;5027579;28;19960;-64
2024/01/21 13:41:50;;;;;;;;;;;3.90;99.90;;;;;;5063876;28;19928;-63
2024/01/21 13:44:16;;;;;;;;;;;3.80;99.90;;;;;;5029798;28;19925;-63
2024/01/21 13:46:42;;;;;;;;;;;3.80;99.90;;;;;;5025038;28;19951;-63
2024/01/21 13:49:07;;;;;;;;;;;3.80;99.90;;;;;;5027757;28;20322;-63
2024/01/21 13:51:33;;;;;;;;;;;3.80;99.90;;;;;;5027664;28;19946;-63
2024/01/21 13:53:59;;;;;;;;;;;3.80;99.90;;;;;;5035029;28;20010;-63
2024/01/21 13:56:24;;;;;;;;;;;3.90;99.90;;;;;;5033099;28;19935;-63
2024/01/21 13:58:50;;;;;;;;;;;3.90;99.90;;;;;;5055572;28;20379;-62
2024/01/21 14:01:16;;;;;;;;;;;3.90;99.90;;;;;;5039613;28;19933;-63
2024/01/21 14:03:42;;;;;;;;;;;3.90;99.90;;;;;;5038717;28;19931;-63
2024/01/21 14:06:07;;;;;;;;;;;3.90;99.90;;;;;;5055292;28;19925;-63
2024/01/21 14:08:33;;;;;;;;;;;3.90;99.90;;;;;;5039143;28;19931;-63
2024/01/21 14:10:59;;;;;;;;;;;3.90;99.90;;;;;;5037575;28;19956;-63
2024/01/21 14:13:24;;;;;;;;;;;3.90;99.90;;;;;;5036197;28;19963;-63
2024/01/21 14:15:50;;;;;;;;;;;4.00;99.90;;;;;;5033894;28;20097;-63
2024/01/21 14:18:15;;;;;;;;;;;4.00;99.90;;;;;;5030942;28;20861;-64
2024/01/21 14:20:41;;;;;;;;;;;4.10;99.90;;;;;;5024522;28;20286;-63
2024/01/21 14:23:07;;;;;;;;;;;4.10;99.90;;;;;;5024633;28;19928;-63
2024/01/21 14:25:38;;;;;;;;;;;4.10;99.90;;;;;;5032715;28;19925;-63